createdAt,value
2023-03-26T00:00:54.249Z,7.93
2023-03-26T00:03:21.025Z,7.89
2023-03-26T00:05:48.427Z,7.85
2023-03-26T00:08:17.924Z,7.94
2023-03-26T00:10:44.482Z,7.95
2023-03-26T00:13:11.422Z,7.93
2023-03-26T00:15:38.326Z,7.99
2023-03-26T00:18:05.710Z,8.15
2023-03-26T00:20:33.070Z,8.18
2023-03-26T00:23:02.922Z,8.23
2023-03-26T00:25:29.846Z,8.37
2023-03-26T00:27:57.358Z,8.28
2023-03-26T00:30:23.896Z,8.38
2023-03-26T00:32:53.428Z,8.42
2023-03-26T00:35:20.877Z,8.42
2023-03-26T00:37:47.826Z,8.48
2023-03-26T00:40:14.430Z,8.57
2023-03-26T00:42:42.491Z,8.64
2023-03-26T00:45:09.521Z,8.69
2023-03-26T00:47:36.574Z,8.64
2023-03-26T00:50:04.297Z,8.67
2023-03-26T00:52:31.653Z,8.72
2023-03-26T00:54:58.649Z,8.69
2023-03-26T00:57:35.809Z,8.64
2023-03-26T01:00:17.099Z,8.59
2023-03-26T01:02:45.360Z,8.59
2023-03-26T01:05:42.991Z,8.59
2023-03-26T01:08:22.919Z,8.59
2023-03-26T01:10:52.509Z,8.60
2023-03-26T01:13:21.471Z,8.63
2023-03-26T01:15:51.106Z,8.57
2023-03-26T01:18:26.325Z,8.55
2023-03-26T01:21:05.072Z,8.47
2023-03-26T01:24:05.259Z,8.34
2023-03-26T01:26:55.678Z,8.19
2023-03-26T01:29:48.112Z,8.06
2023-03-26T01:32:23.918Z,7.95
2023-03-26T01:35:00.816Z,7.81
2023-03-26T01:37:46.870Z,7.70
2023-03-26T01:40:38.682Z,7.64
2023-03-26T01:43:15.595Z,7.64
2023-03-26T01:45:43.039Z,7.55
2023-03-26T01:48:09.819Z,7.52
2023-03-26T01:50:36.362Z,7.53
2023-03-26T01:53:02.845Z,7.52
2023-03-26T01:55:58.556Z,7.52
2023-03-26T01:58:30.010Z,7.35
2023-03-26T02:01:06.740Z,7.30
2023-03-26T02:03:42.826Z,7.30
2023-03-26T02:06:37.373Z,7.30
2023-03-26T02:09:08.465Z,7.22
2023-03-26T02:11:36.386Z,7.25
2023-03-26T02:14:04.845Z,7.27
2023-03-26T02:16:31.696Z,7.28
2023-03-26T02:18:59.153Z,7.22
2023-03-26T02:21:26.995Z,7.20
2023-03-26T02:24:03.158Z,7.23
2023-03-26T02:26:32.199Z,7.18
2023-03-26T02:28:59.353Z,7.24
2023-03-26T02:31:30.218Z,7.21
2023-03-26T02:33:59.500Z,7.27
2023-03-26T02:36:27.972Z,7.34
2023-03-26T02:38:55.815Z,7.38
2023-03-26T02:41:22.447Z,7.35
2023-03-26T02:43:49.138Z,7.44
2023-03-26T02:46:15.688Z,7.49
2023-03-26T02:48:42.566Z,7.57
2023-03-26T02:51:09.007Z,7.64
2023-03-26T02:53:37.556Z,7.66
2023-03-26T02:56:04.551Z,7.68
2023-03-26T02:58:31.881Z,7.72
2023-03-26T03:00:58.677Z,7.71
2023-03-26T03:03:27.553Z,7.72
2023-03-26T03:05:55.391Z,7.65
2023-03-26T03:08:24.167Z,7.63
2023-03-26T03:11:02.573Z,7.63
2023-03-26T03:13:29.345Z,7.62
2023-03-26T03:15:56.290Z,7.61
2023-03-26T03:18:23.010Z,7.66
2023-03-26T03:20:49.949Z,7.66
2023-03-26T03:23:17.170Z,7.69
2023-03-26T03:25:43.756Z,7.67
2023-03-26T03:28:10.411Z,7.68
2023-03-26T03:30:37.159Z,7.67
2023-03-26T03:33:03.880Z,7.68
2023-03-26T03:35:30.697Z,7.66
2023-03-26T03:37:58.105Z,7.63
2023-03-26T03:40:24.602Z,7.60
2023-03-26T03:42:51.513Z,7.56
2023-03-26T03:45:18.770Z,7.54
2023-03-26T03:47:45.331Z,7.54
2023-03-26T03:50:11.917Z,7.53
2023-03-26T03:52:38.977Z,7.49
2023-03-26T03:55:05.916Z,7.51
2023-03-26T03:57:33.524Z,7.52
2023-03-26T04:00:00.406Z,7.42
2023-03-26T04:02:30.322Z,7.40
2023-03-26T04:05:00.317Z,7.37
2023-03-26T04:07:28.097Z,7.33
2023-03-26T04:09:54.558Z,7.27
2023-03-26T04:12:21.007Z,7.24
2023-03-26T04:14:47.514Z,7.17
2023-03-26T04:17:15.394Z,7.24
2023-03-26T04:19:44.138Z,7.25
2023-03-26T04:22:11.928Z,7.28
2023-03-26T04:24:40.174Z,7.29
2023-03-26T04:27:09.996Z,7.37
2023-03-26T04:29:44.805Z,7.37
2023-03-26T04:32:19.527Z,7.33
2023-03-26T04:34:46.209Z,7.41
2023-03-26T04:37:32.309Z,7.44
2023-03-26T04:40:00.529Z,7.57
2023-03-26T04:42:28.586Z,7.70
2023-03-26T04:44:55.034Z,7.74
2023-03-26T04:47:21.508Z,7.75
2023-03-26T04:49:48.390Z,7.80
2023-03-26T04:52:15.324Z,7.80
2023-03-26T04:54:43.662Z,7.82
2023-03-26T04:57:19.942Z,7.85
2023-03-26T04:59:46.492Z,7.82
2023-03-26T05:02:14.032Z,7.82
2023-03-26T05:04:41.010Z,7.80
2023-03-26T05:07:07.753Z,7.87
2023-03-26T05:09:34.216Z,7.86
2023-03-26T05:12:00.878Z,7.89
2023-03-26T05:14:27.406Z,7.93
2023-03-26T05:16:53.920Z,7.96
2023-03-26T05:19:20.704Z,7.99
2023-03-26T05:21:47.395Z,7.99
2023-03-26T05:24:13.878Z,8.02
2023-03-26T05:26:40.300Z,7.99
2023-03-26T05:29:06.805Z,7.95
2023-03-26T05:31:33.341Z,7.88
2023-03-26T05:34:03.249Z,7.86
2023-03-26T05:36:29.870Z,7.88
2023-03-26T05:38:56.390Z,7.87
2023-03-26T05:41:22.940Z,7.83
2023-03-26T05:43:49.675Z,7.79
2023-03-26T05:46:16.464Z,7.83
2023-03-26T05:48:42.950Z,7.92
2023-03-26T05:51:09.755Z,7.95
2023-03-26T05:53:36.379Z,7.89
2023-03-26T05:56:04.372Z,7.93
2023-03-26T05:58:32.922Z,7.86
2023-03-26T06:01:08.680Z,7.89
2023-03-26T06:03:39.851Z,7.92
2023-03-26T06:06:11.105Z,7.89
2023-03-26T06:08:37.663Z,7.99
2023-03-26T06:11:07.883Z,8.14
2023-03-26T06:13:34.887Z,8.29
2023-03-26T06:16:01.733Z,8.36
2023-03-26T06:18:28.296Z,8.42
2023-03-26T06:20:55.020Z,8.47
2023-03-26T06:23:23.138Z,8.57
2023-03-26T06:25:50.369Z,8.63
2023-03-26T06:28:17.404Z,8.56
2023-03-26T06:30:44.157Z,8.64
2023-03-26T06:33:10.942Z,8.67
2023-03-26T06:35:37.524Z,8.74
2023-03-26T06:38:04.502Z,8.84
2023-03-26T06:40:32.719Z,8.86
2023-03-26T06:43:09.332Z,8.97
2023-03-26T06:45:37.532Z,8.95
2023-03-26T06:48:04.813Z,8.94
2023-03-26T06:50:32.239Z,9.28
2023-03-26T06:52:58.739Z,10.07
2023-03-26T06:55:25.541Z,10.22
2023-03-26T06:57:53.176Z,9.87
2023-03-26T07:00:20.786Z,9.87
2023-03-26T07:02:47.653Z,9.95
2023-03-26T07:05:14.658Z,10.06
2023-03-26T07:07:46.363Z,10.17
2023-03-26T07:10:14.954Z,10.04
2023-03-26T07:12:42.396Z,9.97
2023-03-26T07:15:10.438Z,10.08
2023-03-26T07:17:37.250Z,10.30
2023-03-26T07:20:05.674Z,10.47
2023-03-26T07:22:32.417Z,10.56
2023-03-26T07:24:59.292Z,10.56
2023-03-26T07:27:29.215Z,10.57
2023-03-26T07:29:59.842Z,10.92
2023-03-26T07:32:38.346Z,11.26
2023-03-26T07:35:24.454Z,10.90
2023-03-26T07:38:09.287Z,11.46
2023-03-26T07:40:47.664Z,11.54
2023-03-26T07:43:24.860Z,11.67
2023-03-26T07:45:51.628Z,11.73
2023-03-26T07:48:21.229Z,11.75
2023-03-26T07:50:48.450Z,11.74
2023-03-26T07:53:15.279Z,11.20
2023-03-26T07:55:51.042Z,11.13
2023-03-26T07:58:52.813Z,10.93
2023-03-26T08:01:43.436Z,10.49
2023-03-26T08:04:29.684Z,10.51
2023-03-26T08:07:03.666Z,10.35
2023-03-26T08:10:03.762Z,10.06
2023-03-26T08:12:39.568Z,10.35
2023-03-26T08:16:05.873Z,10.23
2023-03-26T08:18:32.543Z,10.38
2023-03-26T08:21:25.185Z,10.26
2023-03-26T08:24:00.412Z,10.14
2023-03-26T08:27:05.253Z,9.99
2023-03-26T08:29:49.984Z,10.03
2023-03-26T08:32:18.607Z,9.83
2023-03-26T08:34:46.290Z,9.95
2023-03-26T08:37:13.357Z,10.02
2023-03-26T08:39:42.038Z,9.82
2023-03-26T08:42:34.917Z,9.98
2023-03-26T08:45:27.350Z,9.91
2023-03-26T08:48:27.150Z,10.01
2023-03-26T08:51:13.573Z,9.99
2023-03-26T08:54:29.015Z,9.99
2023-03-26T08:57:23.454Z,9.95
2023-03-26T08:59:49.991Z,10.09
2023-03-26T09:02:56.081Z,10.16
2023-03-26T09:05:41.335Z,10.17
2023-03-26T09:08:54.184Z,10.14
2023-03-26T09:11:36.032Z,10.42
2023-03-26T09:14:44.589Z,10.58
2023-03-26T09:17:33.880Z,10.34
2023-03-26T09:20:03.251Z,10.49
2023-03-26T09:23:06.935Z,10.46
2023-03-26T09:25:53.681Z,10.69
2023-03-26T09:29:00.809Z,10.78
2023-03-26T09:31:39.380Z,10.67
2023-03-26T09:34:23.607Z,10.81
2023-03-26T09:36:53.264Z,10.63
2023-03-26T09:39:39.195Z,10.71
2023-03-26T09:42:11.806Z,11.05
2023-03-26T09:44:49.869Z,11.16
2023-03-26T09:47:32.252Z,11.78
2023-03-26T09:50:10.679Z,12.23
2023-03-26T09:52:52.323Z,12.90
2023-03-26T09:55:49.257Z,13.87
2023-03-26T09:58:18.795Z,14.96
2023-03-26T10:00:54.293Z,15.43
2023-03-26T10:03:40.885Z,16.37
2023-03-26T10:06:13.915Z,16.45
2023-03-26T10:08:58.640Z,17.42
2023-03-26T10:11:50.165Z,16.49
2023-03-26T10:14:26.751Z,16.04
2023-03-26T10:17:16.773Z,15.70
2023-03-26T10:20:17.649Z,14.80
2023-03-26T10:23:05.255Z,14.31
2023-03-26T10:25:47.018Z,14.55
2023-03-26T10:28:51.220Z,14.43
2023-03-26T10:31:35.772Z,14.65
2023-03-26T10:34:29.391Z,14.93
2023-03-26T10:37:12.906Z,15.47
2023-03-26T10:40:01.692Z,15.66
2023-03-26T10:42:34.693Z,15.81
2023-03-26T10:45:23.065Z,17.05
2023-03-26T10:48:08.374Z,18.04
2023-03-26T10:51:02.637Z,17.36
2023-03-26T10:53:44.338Z,16.87
2023-03-26T10:56:28.400Z,17.74
2023-03-26T10:58:56.851Z,20.45
2023-03-26T11:01:44.076Z,21.36
2023-03-26T11:04:16.575Z,20.40
2023-03-26T11:07:27.060Z,19.79
2023-03-26T11:10:07.633Z,19.91
2023-03-26T11:12:44.377Z,19.75
2023-03-26T11:16:03.621Z,18.54
2023-03-26T11:18:39.657Z,17.57
2023-03-26T11:21:18.854Z,15.59
2023-03-26T11:24:23.180Z,15.03
2023-03-26T11:26:55.922Z,14.91
2023-03-26T11:29:52.233Z,15.34
2023-03-26T11:32:39.363Z,15.70
2023-03-26T11:35:40.939Z,14.51
2023-03-26T11:38:27.474Z,13.94
2023-03-26T11:40:55.824Z,14.58
2023-03-26T11:43:28.060Z,14.06
2023-03-26T11:45:54.523Z,14.46
2023-03-26T11:48:38.849Z,14.35
2023-03-26T11:51:12.915Z,14.18
2023-03-26T11:53:39.593Z,14.49
2023-03-26T11:56:14.854Z,14.16
2023-03-26T11:58:53.033Z,14.26
2023-03-26T12:01:31.203Z,14.20
2023-03-26T12:04:04.170Z,13.96
2023-03-26T12:06:32.941Z,14.29
2023-03-26T12:08:59.557Z,14.46
2023-03-26T12:11:32.186Z,14.29
2023-03-26T12:14:04.756Z,14.32
2023-03-26T12:16:31.521Z,14.35
2023-03-26T12:19:18.822Z,14.36
2023-03-26T12:21:50.621Z,14.39
2023-03-26T12:24:36.368Z,14.27
2023-03-26T12:27:20.668Z,14.11
2023-03-26T12:30:00.204Z,14.24
2023-03-26T12:32:45.302Z,14.41
2023-03-26T12:35:18.758Z,14.40
2023-03-26T12:37:46.734Z,13.67
2023-03-26T12:40:25.385Z,13.95
2023-03-26T12:44:50.407Z,14.18
2023-03-26T12:45:43.095Z,14.42
2023-03-26T12:48:15.711Z,14.32
2023-03-26T12:50:48.251Z,14.59
2023-03-26T12:53:38.461Z,14.15
2023-03-26T12:56:11.510Z,14.48
2023-03-26T12:59:00.096Z,14.49
2023-03-26T13:01:41.830Z,14.49
2023-03-26T13:04:14.813Z,14.21
2023-03-26T13:06:59.098Z,13.80
2023-03-26T13:10:24.817Z,13.92
2023-03-26T13:13:05.101Z,13.45
2023-03-26T13:15:38.842Z,13.63
2023-03-26T13:18:24.165Z,13.80
2023-03-26T13:21:10.224Z,14.02
2023-03-26T13:23:49.070Z,13.95
2023-03-26T13:27:00.366Z,14.22
2023-03-26T13:29:40.530Z,14.00
2023-03-26T13:32:15.410Z,14.18
2023-03-26T13:34:56.987Z,14.38
2023-03-26T13:37:32.636Z,14.37
2023-03-26T13:40:22.218Z,14.60
2023-03-26T13:43:26.295Z,14.29
2023-03-26T13:46:31.385Z,14.29
2023-03-26T13:49:16.519Z,14.37
2023-03-26T13:51:53.721Z,14.22
2023-03-26T13:54:44.621Z,14.35
2023-03-26T13:57:29.424Z,13.93
2023-03-26T14:00:21.767Z,13.47
2023-03-26T14:03:20.859Z,13.57
2023-03-26T14:05:49.822Z,13.82
2023-03-26T14:08:36.880Z,13.81
2023-03-26T14:11:31.215Z,13.50
2023-03-26T14:14:06.754Z,13.45
2023-03-26T14:16:47.996Z,13.23
2023-03-26T14:19:57.863Z,12.76
2023-03-26T14:22:49.088Z,12.44
2023-03-26T14:25:39.733Z,12.62
2023-03-26T14:28:21.315Z,12.57
2023-03-26T14:30:57.167Z,12.23
2023-03-26T14:33:54.304Z,11.53
2023-03-26T14:36:39.591Z,10.79
2023-03-26T14:39:12.153Z,10.19
2023-03-26T14:42:10.073Z,9.81
2023-03-26T14:44:48.596Z,9.71
2023-03-26T14:47:16.105Z,9.73
2023-03-26T14:50:04.399Z,9.85
2023-03-26T14:52:40.075Z,9.99
2023-03-26T14:55:14.148Z,10.05
2023-03-26T14:58:04.941Z,10.01
2023-03-26T15:01:10.869Z,9.96
2023-03-26T15:03:50.202Z,9.93
2023-03-26T15:06:35.402Z,10.03
2023-03-26T15:09:29.930Z,10.09
2023-03-26T15:12:21.283Z,9.96
2023-03-26T15:14:51.071Z,9.94
2023-03-26T15:17:40.592Z,9.93
2023-03-26T15:20:31.769Z,9.94
2023-03-26T15:23:19.488Z,9.94
2023-03-26T15:26:01.131Z,9.83
2023-03-26T15:29:15.942Z,9.69
2023-03-26T15:32:14.098Z,9.79
2023-03-26T15:35:09.694Z,9.91
2023-03-26T15:37:58.710Z,9.77
2023-03-26T15:40:33.967Z,9.74
2023-03-26T15:43:09.093Z,9.49
2023-03-26T15:45:45.200Z,9.49
2023-03-26T15:48:12.026Z,9.39
2023-03-26T15:50:45.090Z,9.18
2023-03-26T15:53:39.850Z,9.11
2023-03-26T15:56:35.631Z,9.05
2023-03-26T15:59:16.420Z,9.12
2023-03-26T16:02:07.582Z,8.92
2023-03-26T16:04:41.681Z,8.82
2023-03-26T16:07:52.850Z,8.84
2023-03-26T16:10:22.403Z,8.77
2023-03-26T16:13:17.363Z,8.58
2023-03-26T16:15:51.650Z,8.44
2023-03-26T16:18:25.369Z,8.38
2023-03-26T16:21:03.231Z,8.25
2023-03-26T16:23:53.692Z,8.19
2023-03-26T16:26:43.382Z,8.11
2023-03-26T16:29:24.634Z,8.01
2023-03-26T16:32:09.768Z,8.01
2023-03-26T16:34:50.523Z,8.02
2023-03-26T16:37:32.132Z,8.01
2023-03-26T16:40:17.163Z,8.04
2023-03-26T16:43:09.519Z,7.99
2023-03-26T16:45:50.972Z,8.06
2023-03-26T16:48:32.773Z,8.08
2023-03-26T16:51:08.534Z,7.86
2023-03-26T16:53:46.245Z,7.90
2023-03-26T16:56:28.049Z,7.86
2023-03-26T16:59:09.674Z,7.90
2023-03-26T17:01:46.263Z,7.92
2023-03-26T17:04:23.443Z,7.69
2023-03-26T17:07:14.040Z,7.72
2023-03-26T17:10:00.951Z,7.63
2023-03-26T17:12:36.953Z,7.67
2023-03-26T17:15:33.896Z,7.68
2023-03-26T17:18:18.530Z,7.53
2023-03-26T17:21:04.698Z,7.52
2023-03-26T17:23:59.419Z,7.57
2023-03-26T17:26:28.285Z,7.63
2023-03-26T17:29:13.062Z,7.66
2023-03-26T17:31:51.604Z,7.67
2023-03-26T17:34:49.010Z,7.59
2023-03-26T17:37:21.995Z,7.62
2023-03-26T17:40:01.417Z,7.60
2023-03-26T17:42:32.702Z,7.61
2023-03-26T17:45:01.434Z,7.61
2023-03-26T17:47:38.603Z,7.64
2023-03-26T17:50:17.928Z,7.61
2023-03-26T17:52:57.254Z,7.54
2023-03-26T17:55:31.115Z,7.58
2023-03-26T17:58:02.913Z,7.63
2023-03-26T18:00:33.339Z,7.50
2023-03-26T18:03:13.768Z,7.50
2023-03-26T18:05:40.473Z,7.42
2023-03-26T18:08:57.991Z,7.39
2023-03-26T18:11:37.383Z,7.43
2023-03-26T18:14:35.039Z,7.47
2023-03-26T18:17:02.199Z,7.49
2023-03-26T18:19:29.268Z,7.48
2023-03-26T18:22:04.458Z,7.51
2023-03-26T18:24:38.919Z,7.48
2023-03-26T18:27:08.465Z,7.47
2023-03-26T18:29:37.204Z,7.48
2023-03-26T18:32:10.083Z,7.45
2023-03-26T18:34:46.453Z,7.37
2023-03-26T18:37:24.727Z,7.34
2023-03-26T18:40:14.524Z,7.34
2023-03-26T18:42:43.816Z,7.34
2023-03-26T18:45:34.450Z,7.37
2023-03-26T18:48:22.712Z,7.37
2023-03-26T18:51:05.731Z,7.37
2023-03-26T18:53:41.426Z,7.44
2023-03-26T18:56:31.626Z,7.46
2023-03-26T18:58:59.716Z,7.30
2023-03-26T19:01:31.216Z,7.14
2023-03-26T19:04:04.947Z,7.07
2023-03-26T19:06:38.160Z,6.93
2023-03-26T19:09:16.342Z,7.04
2023-03-26T19:11:55.849Z,7.17
2023-03-26T19:14:22.574Z,7.02
2023-03-26T19:16:56.042Z,6.88
2023-03-26T19:19:26.419Z,6.87
2023-03-26T19:21:52.970Z,6.84
2023-03-26T19:24:20.679Z,6.80
2023-03-26T19:26:47.854Z,6.77
2023-03-26T19:29:17.524Z,6.81
2023-03-26T19:31:43.991Z,6.89
2023-03-26T19:34:24.528Z,6.98
2023-03-26T19:36:59.470Z,7.11
2023-03-26T19:39:37.711Z,7.07
2023-03-26T19:42:05.351Z,6.99
2023-03-26T19:44:32.679Z,6.84
2023-03-26T19:47:08.498Z,6.78
2023-03-26T19:49:53.062Z,6.77
2023-03-26T19:52:28.450Z,6.79
2023-03-26T19:55:01.289Z,6.87
2023-03-26T19:57:32.630Z,6.83
2023-03-26T19:59:59.297Z,6.76
2023-03-26T20:02:27.103Z,6.80
2023-03-26T20:04:53.884Z,6.86
2023-03-26T20:07:35.974Z,6.92
2023-03-26T20:10:05.712Z,6.99
2023-03-26T20:12:32.635Z,7.07
2023-03-26T20:14:59.287Z,7.10
2023-03-26T20:17:27.138Z,7.15
2023-03-26T20:19:54.355Z,7.21
2023-03-26T20:22:20.838Z,7.30
2023-03-26T20:24:47.584Z,7.28
2023-03-26T20:27:14.648Z,7.30
2023-03-26T20:29:42.142Z,7.19
2023-03-26T20:32:20.098Z,7.24
2023-03-26T20:34:49.807Z,7.25
2023-03-26T20:37:17.223Z,7.25
2023-03-26T20:39:43.958Z,7.18
2023-03-26T20:42:12.222Z,7.21
2023-03-26T20:44:41.265Z,7.11
2023-03-26T20:47:09.566Z,7.11
2023-03-26T20:49:36.109Z,7.10
2023-03-26T20:52:02.660Z,7.15
2023-03-26T20:54:31.967Z,7.03
2023-03-26T20:56:58.578Z,7.15
2023-03-26T20:59:27.501Z,7.16
2023-03-26T21:01:56.540Z,7.12
2023-03-26T21:04:24.975Z,7.06
2023-03-26T21:06:53.312Z,7.04
2023-03-26T21:09:25.247Z,7.01
2023-03-26T21:12:36.437Z,7.03
2023-03-26T21:15:09.977Z,7.03
2023-03-26T21:17:40.531Z,7.05
2023-03-26T21:20:11.431Z,7.01
2023-03-26T21:23:11.714Z,7.05
2023-03-26T21:25:49.097Z,7.10
2023-03-26T21:28:41.938Z,7.06
2023-03-26T21:31:24.080Z,7.06
2023-03-26T21:33:51.798Z,7.01
2023-03-26T21:36:19.726Z,6.91
2023-03-26T21:38:46.878Z,7.03
2023-03-26T21:41:49.154Z,6.95
2023-03-26T21:44:32.341Z,6.91
2023-03-26T21:46:59.104Z,7.02
2023-03-26T21:49:26.007Z,7.05
2023-03-26T21:51:52.709Z,7.03
2023-03-26T21:54:23.876Z,6.98
2023-03-26T21:57:06.839Z,6.85
2023-03-26T21:59:55.020Z,6.67
2023-03-26T22:02:31.787Z,6.69
2023-03-26T22:05:04.644Z,6.75
2023-03-26T22:07:52.125Z,6.75
2023-03-26T22:10:18.867Z,6.75
2023-03-26T22:12:45.464Z,6.82
2023-03-26T22:15:14.839Z,6.93
2023-03-26T22:17:42.155Z,6.87
2023-03-26T22:20:10.622Z,6.85
2023-03-26T22:22:37.008Z,6.78
2023-03-26T22:25:03.638Z,6.74
2023-03-26T22:27:30.199Z,6.62
2023-03-26T22:29:56.810Z,6.67
2023-03-26T22:32:23.460Z,6.76
2023-03-26T22:34:51.339Z,6.86
2023-03-26T22:37:17.903Z,6.84
2023-03-26T22:39:44.377Z,6.79
2023-03-26T22:42:10.878Z,6.63
2023-03-26T22:44:37.360Z,6.47
2023-03-26T22:47:04.620Z,6.51
2023-03-26T22:49:31.412Z,6.50
2023-03-26T22:51:57.866Z,6.52
2023-03-26T22:54:24.423Z,6.65
2023-03-26T22:56:52.346Z,6.80
2023-03-26T22:59:18.963Z,6.79
2023-03-26T23:01:45.814Z,6.83
2023-03-26T23:04:12.866Z,6.63
2023-03-26T23:06:58.309Z,6.58
2023-03-26T23:09:24.922Z,6.72
2023-03-26T23:11:51.808Z,6.73
2023-03-26T23:14:19.118Z,6.80
2023-03-26T23:16:48.778Z,6.72
2023-03-26T23:19:15.817Z,6.71
2023-03-26T23:21:42.665Z,6.76
2023-03-26T23:24:09.267Z,6.76
2023-03-26T23:26:49.550Z,6.75
2023-03-26T23:29:17.565Z,6.77
2023-03-26T23:31:44.521Z,6.76
2023-03-26T23:34:13.611Z,6.66
2023-03-26T23:36:42.103Z,6.49
2023-03-26T23:39:09.257Z,6.60
2023-03-26T23:41:36.815Z,6.63
2023-03-26T23:44:04.752Z,6.81
2023-03-26T23:46:34.720Z,6.71
2023-03-26T23:49:04.923Z,6.67
2023-03-26T23:51:32.161Z,6.70
2023-03-26T23:53:59.955Z,6.73
2023-03-26T23:56:29.913Z,6.76
2023-03-26T23:58:56.504Z,6.76
